sensor_id;sensor_type;location;lat;lon;timestamp;P1;durP1;ratioP1;P2;durP2;ratioP2
9485;SDS011;4781;48.776;9.200;2023-04-25T00:01:01;4.20;;;2.37;;
9485;SDS011;4781;48.776;9.200;2023-04-25T00:03:34;3.80;;;2.10;;
9485;SDS011;4781;48.776;9.200;2023-04-25T00:05:58;3.80;;;1.90;;
9485;SDS011;4781;48.776;9.200;2023-04-25T00:08:26;3.25;;;1.90;;
9485;SDS011;4781;48.776;9.200;2023-04-25T00:10:56;3.98;;;1.90;;
9485;SDS011;4781;48.776;9.200;2023-04-25T00:13:20;3.05;;;1.90;;
9485;SDS011;4781;48.776;9.200;2023-04-25T00:15:46;3.10;;;1.77;;
9485;SDS011;4781;48.776;9.200;2023-04-25T00:18:14;3.90;;;2.00;;
9485;SDS011;4781;48.776;9.200;2023-04-25T00:20:40;3.72;;;1.92;;
9485;SDS011;4781;48.776;9.200;2023-04-25T00:23:08;3.40;;;1.80;;
9485;SDS011;4781;48.776;9.200;2023-04-25T00:25:34;2.72;;;1.62;;
9485;SDS011;4781;48.776;9.200;2023-04-25T00:27:59;4.28;;;2.02;;
9485;SDS011;4781;48.776;9.200;2023-04-25T00:30:25;3.58;;;1.90;;
9485;SDS011;4781;48.776;9.200;2023-04-25T00:32:51;3.72;;;2.10;;
9485;SDS011;4781;48.776;9.200;2023-04-25T00:35:17;2.87;;;1.90;;
9485;SDS011;4781;48.776;9.200;2023-04-25T00:37:43;2.77;;;1.77;;
9485;SDS011;4781;48.776;9.200;2023-04-25T00:40:09;3.95;;;1.90;;
9485;SDS011;4781;48.776;9.200;2023-04-25T00:45:01;3.50;;;1.85;;
9485;SDS011;4781;48.776;9.200;2023-04-25T00:47:26;3.25;;;1.80;;
9485;SDS011;4781;48.776;9.200;2023-04-25T00:49:54;4.17;;;1.82;;
9485;SDS011;4781;48.776;9.200;2023-04-25T00:52:20;4.67;;;1.70;;
9485;SDS011;4781;48.776;9.200;2023-04-25T00:54:46;3.90;;;1.55;;
9485;SDS011;4781;48.776;9.200;2023-04-25T00:57:12;3.60;;;2.02;;
9485;SDS011;4781;48.776;9.200;2023-04-25T00:59:38;5.72;;;2.20;;
9485;SDS011;4781;48.776;9.200;2023-04-25T01:02:05;3.62;;;2.00;;
9485;SDS011;4781;48.776;9.200;2023-04-25T01:04:32;4.62;;;2.17;;
9485;SDS011;4781;48.776;9.200;2023-04-25T01:06:58;3.33;;;2.00;;
9485;SDS011;4781;48.776;9.200;2023-04-25T01:09:25;5.17;;;2.15;;
9485;SDS011;4781;48.776;9.200;2023-04-25T01:11:51;4.53;;;2.05;;
9485;SDS011;4781;48.776;9.200;2023-04-25T01:14:17;5.22;;;2.05;;
9485;SDS011;4781;48.776;9.200;2023-04-25T01:16:43;4.33;;;2.27;;
9485;SDS011;4781;48.776;9.200;2023-04-25T01:19:12;5.12;;;2.10;;
9485;SDS011;4781;48.776;9.200;2023-04-25T01:21:43;4.50;;;2.37;;
9485;SDS011;4781;48.776;9.200;2023-04-25T01:24:10;5.33;;;2.30;;
9485;SDS011;4781;48.776;9.200;2023-04-25T01:26:37;3.58;;;2.05;;
9485;SDS011;4781;48.776;9.200;2023-04-25T01:29:05;3.50;;;2.10;;
9485;SDS011;4781;48.776;9.200;2023-04-25T01:31:32;3.87;;;2.35;;
9485;SDS011;4781;48.776;9.200;2023-04-25T01:34:00;4.47;;;2.10;;
9485;SDS011;4781;48.776;9.200;2023-04-25T01:36:29;4.05;;;2.20;;
9485;SDS011;4781;48.776;9.200;2023-04-25T01:38:56;4.33;;;2.35;;
9485;SDS011;4781;48.776;9.200;2023-04-25T01:41:22;5.12;;;2.35;;
9485;SDS011;4781;48.776;9.200;2023-04-25T01:43:48;6.03;;;2.50;;
9485;SDS011;4781;48.776;9.200;2023-04-25T01:46:14;4.58;;;2.30;;
9485;SDS011;4781;48.776;9.200;2023-04-25T01:48:40;3.58;;;2.20;;
9485;SDS011;4781;48.776;9.200;2023-04-25T01:51:06;4.45;;;2.08;;
9485;SDS011;4781;48.776;9.200;2023-04-25T01:53:32;6.00;;;2.33;;
9485;SDS011;4781;48.776;9.200;2023-04-25T01:55:59;6.00;;;2.40;;
9485;SDS011;4781;48.776;9.200;2023-04-25T01:58:25;5.55;;;2.40;;
9485;SDS011;4781;48.776;9.200;2023-04-25T02:00:50;6.10;;;2.55;;
9485;SDS011;4781;48.776;9.200;2023-04-25T02:03:16;6.35;;;2.50;;
9485;SDS011;4781;48.776;9.200;2023-04-25T02:05:42;6.30;;;2.50;;
9485;SDS011;4781;48.776;9.200;2023-04-25T02:08:08;4.50;;;2.20;;
9485;SDS011;4781;48.776;9.200;2023-04-25T02:10:35;5.85;;;2.80;;
9485;SDS011;4781;48.776;9.200;2023-04-25T02:13:02;4.67;;;2.37;;
9485;SDS011;4781;48.776;9.200;2023-04-25T02:15:30;4.30;;;2.27;;
9485;SDS011;4781;48.776;9.200;2023-04-25T02:17:56;4.03;;;2.42;;
9485;SDS011;4781;48.776;9.200;2023-04-25T02:20:23;4.85;;;2.52;;
9485;SDS011;4781;48.776;9.200;2023-04-25T02:22:50;6.22;;;2.80;;
9485;SDS011;4781;48.776;9.200;2023-04-25T02:25:17;5.65;;;2.70;;
9485;SDS011;4781;48.776;9.200;2023-04-25T02:27:45;4.55;;;2.60;;
9485;SDS011;4781;48.776;9.200;2023-04-25T02:30:13;6.53;;;3.08;;
9485;SDS011;4781;48.776;9.200;2023-04-25T02:32:39;5.12;;;2.52;;
9485;SDS011;4781;48.776;9.200;2023-04-25T02:35:06;4.85;;;2.30;;
9485;SDS011;4781;48.776;9.200;2023-04-25T02:37:35;4.83;;;2.27;;
9485;SDS011;4781;48.776;9.200;2023-04-25T02:40:02;5.22;;;2.60;;
9485;SDS011;4781;48.776;9.200;2023-04-25T02:42:29;4.90;;;2.33;;
9485;SDS011;4781;48.776;9.200;2023-04-25T02:44:56;6.35;;;2.40;;
9485;SDS011;4781;48.776;9.200;2023-04-25T02:47:21;3.92;;;2.30;;
9485;SDS011;4781;48.776;9.200;2023-04-25T02:49:47;6.45;;;2.30;;
9485;SDS011;4781;48.776;9.200;2023-04-25T02:52:13;4.97;;;2.40;;
9485;SDS011;4781;48.776;9.200;2023-04-25T02:54:42;3.67;;;2.27;;
9485;SDS011;4781;48.776;9.200;2023-04-25T02:57:08;3.08;;;1.98;;
9485;SDS011;4781;48.776;9.200;2023-04-25T02:59:34;3.85;;;2.05;;
9485;SDS011;4781;48.776;9.200;2023-04-25T03:02:00;4.05;;;1.92;;
9485;SDS011;4781;48.776;9.200;2023-04-25T03:04:27;4.22;;;2.30;;
9485;SDS011;4781;48.776;9.200;2023-04-25T03:06:53;4.40;;;2.47;;
9485;SDS011;4781;48.776;9.200;2023-04-25T03:09:21;4.47;;;2.22;;
9485;SDS011;4781;48.776;9.200;2023-04-25T03:11:47;7.37;;;2.52;;
9485;SDS011;4781;48.776;9.200;2023-04-25T03:14:13;4.95;;;2.50;;
9485;SDS011;4781;48.776;9.200;2023-04-25T03:16:39;6.05;;;2.22;;
9485;SDS011;4781;48.776;9.200;2023-04-25T03:19:05;3.90;;;2.12;;
9485;SDS011;4781;48.776;9.200;2023-04-25T03:21:31;4.67;;;2.30;;
9485;SDS011;4781;48.776;9.200;2023-04-25T03:24:00;5.67;;;2.30;;
9485;SDS011;4781;48.776;9.200;2023-04-25T03:26:27;3.17;;;1.92;;
9485;SDS011;4781;48.776;9.200;2023-04-25T03:28:53;4.90;;;2.40;;
9485;SDS011;4781;48.776;9.200;2023-04-25T03:31:21;3.67;;;2.20;;
9485;SDS011;4781;48.776;9.200;2023-04-25T03:33:47;6.30;;;2.25;;
9485;SDS011;4781;48.776;9.200;2023-04-25T03:36:13;4.25;;;2.45;;
9485;SDS011;4781;48.776;9.200;2023-04-25T03:38:40;6.17;;;2.47;;
9485;SDS011;4781;48.776;9.200;2023-04-25T03:41:07;5.45;;;2.40;;
9485;SDS011;4781;48.776;9.200;2023-04-25T03:43:33;5.47;;;2.15;;
9485;SDS011;4781;48.776;9.200;2023-04-25T03:45:59;4.37;;;2.10;;
9485;SDS011;4781;48.776;9.200;2023-04-25T03:48:26;5.08;;;2.58;;
9485;SDS011;4781;48.776;9.200;2023-04-25T03:50:52;6.35;;;2.40;;
9485;SDS011;4781;48.776;9.200;2023-04-25T03:53:20;4.97;;;2.22;;
9485;SDS011;4781;48.776;9.200;2023-04-25T03:55:46;4.78;;;2.40;;
9485;SDS011;4781;48.776;9.200;2023-04-25T03:58:11;4.62;;;2.25;;
9485;SDS011;4781;48.776;9.200;2023-04-25T04:00:37;5.08;;;2.55;;
9485;SDS011;4781;48.776;9.200;2023-04-25T04:03:03;4.85;;;2.60;;
9485;SDS011;4781;48.776;9.200;2023-04-25T04:05:29;5.55;;;2.52;;
9485;SDS011;4781;48.776;9.200;2023-04-25T04:07:55;5.45;;;2.55;;
9485;SDS011;4781;48.776;9.200;2023-04-25T04:10:22;6.65;;;2.47;;
9485;SDS011;4781;48.776;9.200;2023-04-25T04:12:48;5.15;;;2.27;;
9485;SDS011;4781;48.776;9.200;2023-04-25T04:15:15;6.60;;;2.75;;
9485;SDS011;4781;48.776;9.200;2023-04-25T04:17:40;5.55;;;2.83;;
9485;SDS011;4781;48.776;9.200;2023-04-25T04:20:07;4.90;;;2.65;;
9485;SDS011;4781;48.776;9.200;2023-04-25T04:22:34;3.90;;;2.25;;
9485;SDS011;4781;48.776;9.200;2023-04-25T04:25:00;6.10;;;2.70;;
9485;SDS011;4781;48.776;9.200;2023-04-25T04:27:25;4.37;;;2.60;;
9485;SDS011;4781;48.776;9.200;2023-04-25T04:29:53;4.60;;;2.37;;
9485;SDS011;4781;48.776;9.200;2023-04-25T04:32:20;6.47;;;3.00;;
9485;SDS011;4781;48.776;9.200;2023-04-25T04:34:45;3.95;;;2.58;;
9485;SDS011;4781;48.776;9.200;2023-04-25T04:37:12;3.75;;;2.55;;
9485;SDS011;4781;48.776;9.200;2023-04-25T04:39:38;5.05;;;2.85;;
9485;SDS011;4781;48.776;9.200;2023-04-25T04:42:04;5.97;;;2.98;;
9485;SDS011;4781;48.776;9.200;2023-04-25T04:44:30;5.58;;;2.95;;
9485;SDS011;4781;48.776;9.200;2023-04-25T04:47:01;5.80;;;2.92;;
9485;SDS011;4781;48.776;9.200;2023-04-25T04:49:29;6.85;;;3.05;;
9485;SDS011;4781;48.776;9.200;2023-04-25T04:51:55;5.58;;;2.72;;
9485;SDS011;4781;48.776;9.200;2023-04-25T04:54:21;6.17;;;2.80;;
9485;SDS011;4781;48.776;9.200;2023-04-25T04:56:47;5.85;;;3.12;;
9485;SDS011;4781;48.776;9.200;2023-04-25T04:59:13;4.35;;;2.75;;
9485;SDS011;4781;48.776;9.200;2023-04-25T05:01:39;6.87;;;3.00;;
9485;SDS011;4781;48.776;9.200;2023-04-25T05:04:05;5.03;;;3.00;;
9485;SDS011;4781;48.776;9.200;2023-04-25T05:06:31;5.20;;;2.87;;
9485;SDS011;4781;48.776;9.200;2023-04-25T05:09:00;6.05;;;3.10;;
9485;SDS011;4781;48.776;9.200;2023-04-25T05:11:26;6.10;;;2.65;;
9485;SDS011;4781;48.776;9.200;2023-04-25T05:13:52;5.53;;;2.80;;
9485;SDS011;4781;48.776;9.200;2023-04-25T05:16:19;6.25;;;3.00;;
9485;SDS011;4781;48.776;9.200;2023-04-25T05:18:46;6.97;;;3.15;;
9485;SDS011;4781;48.776;9.200;2023-04-25T05:21:12;5.12;;;2.80;;
9485;SDS011;4781;48.776;9.200;2023-04-25T05:23:38;5.90;;;2.92;;
9485;SDS011;4781;48.776;9.200;2023-04-25T05:26:04;6.35;;;2.85;;
9485;SDS011;4781;48.776;9.200;2023-04-25T05:28:30;4.45;;;2.85;;
9485;SDS011;4781;48.776;9.200;2023-04-25T05:30:56;8.15;;;3.35;;
9485;SDS011;4781;48.776;9.200;2023-04-25T05:33:22;5.67;;;3.27;;
9485;SDS011;4781;48.776;9.200;2023-04-25T05:35:50;8.63;;;3.60;;
9485;SDS011;4781;48.776;9.200;2023-04-25T05:38:16;5.62;;;3.25;;
9485;SDS011;4781;48.776;9.200;2023-04-25T05:40:43;4.75;;;3.10;;
9485;SDS011;4781;48.776;9.200;2023-04-25T05:43:09;7.45;;;3.67;;
9485;SDS011;4781;48.776;9.200;2023-04-25T05:45:35;5.28;;;3.17;;
9485;SDS011;4781;48.776;9.200;2023-04-25T05:48:01;5.45;;;3.05;;
9485;SDS011;4781;48.776;9.200;2023-04-25T05:50:29;5.58;;;3.35;;
9485;SDS011;4781;48.776;9.200;2023-04-25T05:52:55;5.17;;;3.10;;
9485;SDS011;4781;48.776;9.200;2023-04-25T05:55:21;5.95;;;2.87;;
9485;SDS011;4781;48.776;9.200;2023-04-25T05:57:47;5.30;;;2.98;;
9485;SDS011;4781;48.776;9.200;2023-04-25T06:00:13;4.87;;;3.27;;
9485;SDS011;4781;48.776;9.200;2023-04-25T06:02:41;4.33;;;2.87;;
9485;SDS011;4781;48.776;9.200;2023-04-25T06:05:07;4.35;;;2.72;;
9485;SDS011;4781;48.776;9.200;2023-04-25T06:07:34;5.03;;;2.67;;
9485;SDS011;4781;48.776;9.200;2023-04-25T06:10:04;4.65;;;2.60;;
9485;SDS011;4781;48.776;9.200;2023-04-25T06:12:30;4.20;;;2.50;;
9485;SDS011;4781;48.776;9.200;2023-04-25T06:14:56;4.97;;;2.70;;
9485;SDS011;4781;48.776;9.200;2023-04-25T06:17:21;4.83;;;2.30;;
9485;SDS011;4781;48.776;9.200;2023-04-25T06:19:47;4.65;;;2.75;;
9485;SDS011;4781;48.776;9.200;2023-04-25T06:22:13;4.17;;;2.42;;
9485;SDS011;4781;48.776;9.200;2023-04-25T06:24:39;3.70;;;2.22;;
9485;SDS011;4781;48.776;9.200;2023-04-25T06:27:05;4.33;;;2.50;;
9485;SDS011;4781;48.776;9.200;2023-04-25T06:29:31;5.95;;;2.60;;
9485;SDS011;4781;48.776;9.200;2023-04-25T06:31:57;8.08;;;3.30;;
9485;SDS011;4781;48.776;9.200;2023-04-25T06:34:23;4.42;;;2.80;;
9485;SDS011;4781;48.776;9.200;2023-04-25T06:36:51;5.42;;;2.72;;
9485;SDS011;4781;48.776;9.200;2023-04-25T06:39:16;5.33;;;2.72;;
9485;SDS011;4781;48.776;9.200;2023-04-25T06:41:42;4.78;;;2.70;;
9485;SDS011;4781;48.776;9.200;2023-04-25T06:44:08;4.58;;;2.80;;
9485;SDS011;4781;48.776;9.200;2023-04-25T06:46:34;4.00;;;2.60;;
9485;SDS011;4781;48.776;9.200;2023-04-25T06:49:00;5.03;;;3.62;;
9485;SDS011;4781;48.776;9.200;2023-04-25T06:51:29;5.72;;;2.87;;
9485;SDS011;4781;48.776;9.200;2023-04-25T06:53:56;6.45;;;2.90;;
9485;SDS011;4781;48.776;9.200;2023-04-25T06:56:22;4.37;;;3.00;;
9485;SDS011;4781;48.776;9.200;2023-04-25T06:58:49;6.15;;;3.30;;
9485;SDS011;4781;48.776;9.200;2023-04-25T07:01:15;6.28;;;2.65;;
9485;SDS011;4781;48.776;9.200;2023-04-25T07:03:41;5.00;;;3.02;;
9485;SDS011;4781;48.776;9.200;2023-04-25T07:06:07;4.33;;;2.77;;
9485;SDS011;4781;48.776;9.200;2023-04-25T07:08:33;6.60;;;3.00;;
9485;SDS011;4781;48.776;9.200;2023-04-25T07:10:58;4.60;;;3.00;;
9485;SDS011;4781;48.776;9.200;2023-04-25T07:13:24;4.28;;;2.90;;
9485;SDS011;4781;48.776;9.200;2023-04-25T07:15:50;4.67;;;3.20;;
9485;SDS011;4781;48.776;9.200;2023-04-25T07:18:19;5.45;;;3.35;;
9485;SDS011;4781;48.776;9.200;2023-04-25T07:20:45;4.53;;;3.10;;
9485;SDS011;4781;48.776;9.200;2023-04-25T07:23:11;6.47;;;3.62;;
9485;SDS011;4781;48.776;9.200;2023-04-25T07:25:37;4.87;;;3.08;;
9485;SDS011;4781;48.776;9.200;2023-04-25T07:28:03;4.30;;;3.05;;
9485;SDS011;4781;48.776;9.200;2023-04-25T07:30:29;7.97;;;3.52;;
9485;SDS011;4781;48.776;9.200;2023-04-25T07:32:56;6.33;;;3.50;;
9485;SDS011;4781;48.776;9.200;2023-04-25T07:35:21;6.37;;;3.58;;
9485;SDS011;4781;48.776;9.200;2023-04-25T07:37:48;5.85;;;3.75;;
9485;SDS011;4781;48.776;9.200;2023-04-25T07:40:14;5.20;;;3.47;;
9485;SDS011;4781;48.776;9.200;2023-04-25T07:42:41;5.75;;;3.77;;
9485;SDS011;4781;48.776;9.200;2023-04-25T07:45:07;7.80;;;3.90;;
9485;SDS011;4781;48.776;9.200;2023-04-25T07:47:34;7.17;;;4.30;;
9485;SDS011;4781;48.776;9.200;2023-04-25T07:50:01;7.70;;;4.03;;
9485;SDS011;4781;48.776;9.200;2023-04-25T07:52:30;6.40;;;4.30;;
9485;SDS011;4781;48.776;9.200;2023-04-25T07:54:56;6.65;;;3.90;;
9485;SDS011;4781;48.776;9.200;2023-04-25T07:57:23;5.85;;;3.98;;
9485;SDS011;4781;48.776;9.200;2023-04-25T07:59:49;5.97;;;4.30;;
9485;SDS011;4781;48.776;9.200;2023-04-25T08:02:15;9.03;;;4.53;;
9485;SDS011;4781;48.776;9.200;2023-04-25T08:04:41;6.75;;;4.40;;
9485;SDS011;4781;48.776;9.200;2023-04-25T08:07:07;7.03;;;4.70;;
9485;SDS011;4781;48.776;9.200;2023-04-25T08:09:33;6.05;;;4.30;;
9485;SDS011;4781;48.776;9.200;2023-04-25T08:12:00;5.85;;;4.45;;
9485;SDS011;4781;48.776;9.200;2023-04-25T08:14:27;6.25;;;4.53;;
9485;SDS011;4781;48.776;9.200;2023-04-25T08:16:56;6.50;;;4.78;;
9485;SDS011;4781;48.776;9.200;2023-04-25T08:19:21;5.42;;;4.10;;
9485;SDS011;4781;48.776;9.200;2023-04-25T08:21:47;5.85;;;4.40;;
9485;SDS011;4781;48.776;9.200;2023-04-25T08:24:13;8.68;;;4.37;;
9485;SDS011;4781;48.776;9.200;2023-04-25T08:26:39;5.67;;;4.15;;
9485;SDS011;4781;48.776;9.200;2023-04-25T08:29:06;6.60;;;4.45;;
9485;SDS011;4781;48.776;9.200;2023-04-25T08:31:32;7.58;;;4.97;;
9485;SDS011;4781;48.776;9.200;2023-04-25T08:33:58;9.08;;;4.67;;
9485;SDS011;4781;48.776;9.200;2023-04-25T08:36:24;6.30;;;4.33;;
9485;SDS011;4781;48.776;9.200;2023-04-25T08:38:50;6.72;;;4.17;;
9485;SDS011;4781;48.776;9.200;2023-04-25T08:41:16;8.38;;;4.40;;
9485;SDS011;4781;48.776;9.200;2023-04-25T08:43:43;7.12;;;4.65;;
9485;SDS011;4781;48.776;9.200;2023-04-25T08:46:10;7.42;;;4.30;;
9485;SDS011;4781;48.776;9.200;2023-04-25T08:48:38;5.90;;;4.42;;
9485;SDS011;4781;48.776;9.200;2023-04-25T08:51:06;5.78;;;4.62;;
9485;SDS011;4781;48.776;9.200;2023-04-25T08:53:33;7.05;;;4.30;;
9485;SDS011;4781;48.776;9.200;2023-04-25T08:56:00;6.70;;;4.55;;
9485;SDS011;4781;48.776;9.200;2023-04-25T08:58:27;9.73;;;4.97;;
9485;SDS011;4781;48.776;9.200;2023-04-25T09:00:58;7.42;;;4.42;;
9485;SDS011;4781;48.776;9.200;2023-04-25T09:03:25;6.47;;;4.62;;
9485;SDS011;4781;48.776;9.200;2023-04-25T09:05:51;7.37;;;5.00;;
9485;SDS011;4781;48.776;9.200;2023-04-25T09:08:18;6.97;;;4.70;;
9485;SDS011;4781;48.776;9.200;2023-04-25T09:10:43;6.53;;;5.00;;
9485;SDS011;4781;48.776;9.200;2023-04-25T09:13:10;7.55;;;4.55;;
9485;SDS011;4781;48.776;9.200;2023-04-25T09:15:50;8.03;;;4.60;;
9485;SDS011;4781;48.776;9.200;2023-04-25T09:18:28;7.47;;;4.87;;
9485;SDS011;4781;48.776;9.200;2023-04-25T09:21:09;6.87;;;5.28;;
9485;SDS011;4781;48.776;9.200;2023-04-25T09:23:41;7.15;;;4.92;;
9485;SDS011;4781;48.776;9.200;2023-04-25T09:26:19;7.55;;;4.92;;
9485;SDS011;4781;48.776;9.200;2023-04-25T09:28:46;7.92;;;4.90;;
9485;SDS011;4781;48.776;9.200;2023-04-25T09:31:21;6.40;;;4.85;;
9485;SDS011;4781;48.776;9.200;2023-04-25T09:33:49;6.95;;;4.87;;
9485;SDS011;4781;48.776;9.200;2023-04-25T09:36:15;6.75;;;4.97;;
9485;SDS011;4781;48.776;9.200;2023-04-25T09:38:45;7.95;;;5.03;;
9485;SDS011;4781;48.776;9.200;2023-04-25T09:41:12;7.40;;;5.97;;
9485;SDS011;4781;48.776;9.200;2023-04-25T09:43:40;9.00;;;5.45;;
9485;SDS011;4781;48.776;9.200;2023-04-25T09:46:11;7.50;;;5.42;;
9485;SDS011;4781;48.776;9.200;2023-04-25T09:48:37;7.90;;;5.55;;
9485;SDS011;4781;48.776;9.200;2023-04-25T09:51:10;7.90;;;5.55;;
9485;SDS011;4781;48.776;9.200;2023-04-25T09:53:40;9.50;;;6.45;;
9485;SDS011;4781;48.776;9.200;2023-04-25T09:56:12;9.45;;;6.08;;
9485;SDS011;4781;48.776;9.200;2023-04-25T09:58:40;9.53;;;6.22;;
9485;SDS011;4781;48.776;9.200;2023-04-25T10:01:07;7.70;;;5.95;;
9485;SDS011;4781;48.776;9.200;2023-04-25T10:03:39;6.50;;;5.30;;
9485;SDS011;4781;48.776;9.200;2023-04-25T10:06:07;7.03;;;5.53;;
9485;SDS011;4781;48.776;9.200;2023-04-25T10:08:36;7.20;;;5.70;;
9485;SDS011;4781;48.776;9.200;2023-04-25T10:11:04;7.37;;;5.40;;
9485;SDS011;4781;48.776;9.200;2023-04-25T10:13:32;6.72;;;5.35;;
9485;SDS011;4781;48.776;9.200;2023-04-25T10:16:01;7.72;;;5.62;;
9485;SDS011;4781;48.776;9.200;2023-04-25T10:18:31;4.42;;;2.92;;
9485;SDS011;4781;48.776;9.200;2023-04-25T10:20:59;4.62;;;3.00;;
9485;SDS011;4781;48.776;9.200;2023-04-25T10:23:29;4.45;;;2.70;;
9485;SDS011;4781;48.776;9.200;2023-04-25T10:25:56;5.17;;;2.65;;
9485;SDS011;4781;48.776;9.200;2023-04-25T10:28:23;8.75;;;3.90;;
9485;SDS011;4781;48.776;9.200;2023-04-25T10:33:34;11.50;;;7.03;;
9485;SDS011;4781;48.776;9.200;2023-04-25T10:35:59;6.22;;;3.98;;
9485;SDS011;4781;48.776;9.200;2023-04-25T10:38:41;6.10;;;4.17;;
9485;SDS011;4781;48.776;9.200;2023-04-25T10:41:08;4.72;;;3.52;;
9485;SDS011;4781;48.776;9.200;2023-04-25T10:48:54;5.45;;;4.08;;
9485;SDS011;4781;48.776;9.200;2023-04-25T10:51:23;4.87;;;2.80;;
9485;SDS011;4781;48.776;9.200;2023-04-25T10:56:33;6.05;;;4.47;;
9485;SDS011;4781;48.776;9.200;2023-04-25T10:59:11;9.45;;;5.72;;
9485;SDS011;4781;48.776;9.200;2023-04-25T11:01:44;7.47;;;5.37;;
9485;SDS011;4781;48.776;9.200;2023-04-25T11:04:31;8.45;;;5.90;;
9485;SDS011;4781;48.776;9.200;2023-04-25T11:07:03;6.58;;;4.80;;
9485;SDS011;4781;48.776;9.200;2023-04-25T11:09:35;8.65;;;5.67;;
9485;SDS011;4781;48.776;9.200;2023-04-25T11:12:04;6.47;;;4.95;;
9485;SDS011;4781;48.776;9.200;2023-04-25T11:14:33;7.55;;;4.45;;
9485;SDS011;4781;48.776;9.200;2023-04-25T11:16:59;7.83;;;4.37;;
9485;SDS011;4781;48.776;9.200;2023-04-25T11:19:27;7.40;;;4.08;;
9485;SDS011;4781;48.776;9.200;2023-04-25T11:21:57;5.17;;;3.90;;
9485;SDS011;4781;48.776;9.200;2023-04-25T11:24:27;5.80;;;4.45;;
9485;SDS011;4781;48.776;9.200;2023-04-25T11:26:58;7.37;;;4.62;;
9485;SDS011;4781;48.776;9.200;2023-04-25T11:29:28;6.05;;;4.25;;
9485;SDS011;4781;48.776;9.200;2023-04-25T11:31:56;7.08;;;5.12;;
9485;SDS011;4781;48.776;9.200;2023-04-25T11:34:24;7.20;;;5.15;;
9485;SDS011;4781;48.776;9.200;2023-04-25T11:36:51;7.05;;;4.92;;
9485;SDS011;4781;48.776;9.200;2023-04-25T11:39:21;5.97;;;4.70;;
9485;SDS011;4781;48.776;9.200;2023-04-25T11:41:47;6.00;;;4.40;;
9485;SDS011;4781;48.776;9.200;2023-04-25T11:44:16;6.95;;;4.20;;
9485;SDS011;4781;48.776;9.200;2023-04-25T11:46:43;7.37;;;4.25;;
9485;SDS011;4781;48.776;9.200;2023-04-25T11:49:10;6.20;;;4.22;;
9485;SDS011;4781;48.776;9.200;2023-04-25T11:51:39;5.87;;;4.12;;
9485;SDS011;4781;48.776;9.200;2023-04-25T11:54:08;6.92;;;4.37;;
9485;SDS011;4781;48.776;9.200;2023-04-25T11:56:35;7.45;;;5.30;;
9485;SDS011;4781;48.776;9.200;2023-04-25T11:59:02;7.30;;;5.85;;
9485;SDS011;4781;48.776;9.200;2023-04-25T12:01:31;8.40;;;6.25;;
9485;SDS011;4781;48.776;9.200;2023-04-25T12:04:10;8.70;;;5.67;;
9485;SDS011;4781;48.776;9.200;2023-04-25T12:06:44;7.45;;;6.40;;
9485;SDS011;4781;48.776;9.200;2023-04-25T12:09:13;9.08;;;6.97;;
9485;SDS011;4781;48.776;9.200;2023-04-25T12:11:44;8.93;;;6.87;;
9485;SDS011;4781;48.776;9.200;2023-04-25T12:14:20;10.40;;;8.05;;
9485;SDS011;4781;48.776;9.200;2023-04-25T12:16:52;9.25;;;7.47;;
9485;SDS011;4781;48.776;9.200;2023-04-25T12:19:22;10.58;;;8.08;;
9485;SDS011;4781;48.776;9.200;2023-04-25T12:21:53;10.38;;;8.15;;
9485;SDS011;4781;48.776;9.200;2023-04-25T12:24:23;10.25;;;7.83;;
9485;SDS011;4781;48.776;9.200;2023-04-25T12:27:02;8.50;;;7.47;;
9485;SDS011;4781;48.776;9.200;2023-04-25T12:29:31;10.03;;;7.67;;
9485;SDS011;4781;48.776;9.200;2023-04-25T12:31:59;10.63;;;7.95;;
9485;SDS011;4781;48.776;9.200;2023-04-25T12:34:27;13.85;;;7.87;;
9485;SDS011;4781;48.776;9.200;2023-04-25T12:36:55;9.48;;;8.00;;
9485;SDS011;4781;48.776;9.200;2023-04-25T12:39:22;10.60;;;8.55;;
9485;SDS011;4781;48.776;9.200;2023-04-25T12:41:50;10.30;;;8.03;;
9485;SDS011;4781;48.776;9.200;2023-04-25T12:44:20;11.55;;;8.70;;
9485;SDS011;4781;48.776;9.200;2023-04-25T12:46:46;10.53;;;7.80;;
9485;SDS011;4781;48.776;9.200;2023-04-25T12:49:13;9.58;;;7.83;;
9485;SDS011;4781;48.776;9.200;2023-04-25T12:51:39;10.28;;;8.50;;
9485;SDS011;4781;48.776;9.200;2023-04-25T12:54:07;10.85;;;8.53;;
9485;SDS011;4781;48.776;9.200;2023-04-25T12:56:34;10.35;;;8.90;;
9485;SDS011;4781;48.776;9.200;2023-04-25T12:59:01;12.78;;;9.43;;
9485;SDS011;4781;48.776;9.200;2023-04-25T13:01:30;12.00;;;8.83;;
9485;SDS011;4781;48.776;9.200;2023-04-25T13:03:57;11.65;;;8.68;;
9485;SDS011;4781;48.776;9.200;2023-04-25T13:06:23;11.43;;;9.00;;
9485;SDS011;4781;48.776;9.200;2023-04-25T13:08:49;14.53;;;10.40;;
9485;SDS011;4781;48.776;9.200;2023-04-25T13:11:15;12.35;;;9.65;;
9485;SDS011;4781;48.776;9.200;2023-04-25T13:13:41;13.00;;;10.05;;
9485;SDS011;4781;48.776;9.200;2023-04-25T13:16:07;15.85;;;10.03;;
9485;SDS011;4781;48.776;9.200;2023-04-25T13:18:34;13.45;;;9.30;;
9485;SDS011;4781;48.776;9.200;2023-04-25T13:21:00;12.93;;;9.93;;
9485;SDS011;4781;48.776;9.200;2023-04-25T13:23:27;13.65;;;9.03;;
9485;SDS011;4781;48.776;9.200;2023-04-25T13:25:54;11.88;;;9.55;;
9485;SDS011;4781;48.776;9.200;2023-04-25T13:28:22;13.93;;;9.73;;
9485;SDS011;4781;48.776;9.200;2023-04-25T13:30:51;14.80;;;9.38;;
9485;SDS011;4781;48.776;9.200;2023-04-25T13:33:17;14.73;;;11.05;;
9485;SDS011;4781;48.776;9.200;2023-04-25T13:35:46;16.27;;;10.95;;
9485;SDS011;4781;48.776;9.200;2023-04-25T13:38:15;16.95;;;11.70;;
9485;SDS011;4781;48.776;9.200;2023-04-25T13:40:41;13.83;;;11.73;;
9485;SDS011;4781;48.776;9.200;2023-04-25T13:43:07;14.18;;;11.95;;
9485;SDS011;4781;48.776;9.200;2023-04-25T13:45:32;17.17;;;10.58;;
9485;SDS011;4781;48.776;9.200;2023-04-25T13:47:58;14.47;;;11.48;;
9485;SDS011;4781;48.776;9.200;2023-04-25T13:50:24;16.23;;;11.97;;
9485;SDS011;4781;48.776;9.200;2023-04-25T13:52:50;18.50;;;11.70;;
9485;SDS011;4781;48.776;9.200;2023-04-25T13:55:16;16.57;;;12.82;;
9485;SDS011;4781;48.776;9.200;2023-04-25T13:57:42;18.52;;;14.28;;
9485;SDS011;4781;48.776;9.200;2023-04-25T14:00:09;19.98;;;16.17;;
9485;SDS011;4781;48.776;9.200;2023-04-25T14:02:36;19.85;;;15.23;;
9485;SDS011;4781;48.776;9.200;2023-04-25T14:05:03;19.30;;;14.95;;
9485;SDS011;4781;48.776;9.200;2023-04-25T14:07:30;17.73;;;14.78;;
9485;SDS011;4781;48.776;9.200;2023-04-25T14:09:56;17.15;;;13.88;;
9485;SDS011;4781;48.776;9.200;2023-04-25T14:12:23;18.27;;;14.43;;
9485;SDS011;4781;48.776;9.200;2023-04-25T14:14:49;17.12;;;14.00;;
9485;SDS011;4781;48.776;9.200;2023-04-25T14:17:15;24.15;;;15.90;;
9485;SDS011;4781;48.776;9.200;2023-04-25T14:19:41;19.30;;;15.03;;
9485;SDS011;4781;48.776;9.200;2023-04-25T14:22:11;19.90;;;15.03;;
9485;SDS011;4781;48.776;9.200;2023-04-25T14:24:37;21.15;;;15.60;;
9485;SDS011;4781;48.776;9.200;2023-04-25T14:27:03;23.27;;;15.75;;
9485;SDS011;4781;48.776;9.200;2023-04-25T14:29:29;17.82;;;13.00;;
9485;SDS011;4781;48.776;9.200;2023-04-25T14:31:56;15.93;;;12.68;;
9485;SDS011;4781;48.776;9.200;2023-04-25T14:34:23;16.80;;;12.10;;
9485;SDS011;4781;48.776;9.200;2023-04-25T14:36:49;13.60;;;11.20;;
9485;SDS011;4781;48.776;9.200;2023-04-25T14:39:15;14.35;;;11.20;;
9485;SDS011;4781;48.776;9.200;2023-04-25T14:41:41;14.45;;;10.72;;
9485;SDS011;4781;48.776;9.200;2023-04-25T14:44:07;12.37;;;10.20;;
9485;SDS011;4781;48.776;9.200;2023-04-25T14:46:33;14.40;;;9.88;;
9485;SDS011;4781;48.776;9.200;2023-04-25T14:48:59;14.68;;;10.63;;
9485;SDS011;4781;48.776;9.200;2023-04-25T14:51:26;12.10;;;9.20;;
9485;SDS011;4781;48.776;9.200;2023-04-25T14:53:52;15.58;;;8.98;;
9485;SDS011;4781;48.776;9.200;2023-04-25T14:56:18;12.95;;;8.85;;
9485;SDS011;4781;48.776;9.200;2023-04-25T14:58:44;10.65;;;9.25;;
9485;SDS011;4781;48.776;9.200;2023-04-25T15:01:11;11.63;;;8.63;;
9485;SDS011;4781;48.776;9.200;2023-04-25T15:03:38;12.85;;;8.50;;
9485;SDS011;4781;48.776;9.200;2023-04-25T15:06:05;13.05;;;8.20;;
9485;SDS011;4781;48.776;9.200;2023-04-25T15:08:32;11.53;;;8.80;;
9485;SDS011;4781;48.776;9.200;2023-04-25T15:10:58;11.40;;;8.88;;
9485;SDS011;4781;48.776;9.200;2023-04-25T15:13:24;10.65;;;9.45;;
9485;SDS011;4781;48.776;9.200;2023-04-25T15:15:52;12.65;;;9.68;;
9485;SDS011;4781;48.776;9.200;2023-04-25T15:18:23;13.83;;;9.53;;
9485;SDS011;4781;48.776;9.200;2023-04-25T15:20:48;15.05;;;10.03;;
9485;SDS011;4781;48.776;9.200;2023-04-25T15:23:16;14.15;;;10.05;;